Time;durP1;ratioP1;P1;durP2;ratioP2;P2;SDS_P1;SDS_P2;PMS_P1;PMS_P2;Temp;Humidity;BMP_temperature;BMP_pressure;BME280_temperature;BME280_humidity;BME280_pressure;Samples;Min_cycle;Max_cycle;Signal;HPM_P1;HPM_P2
2022/12/29 00:02:00;;;;;;;;;;;;;;;15.64;51.26;102099.84;5096335;28;1063;-48
2022/12/29 00:04:26;;;;;;;;;;;;;;;17.17;47.80;102092.63;5096385;28;1200;-49
2022/12/29 00:06:51;;;;;;;;;;;;;;;16.33;49.67;102096.63;5082769;28;939;-49
2022/12/29 00:09:17;;;;;;;;;;;;;;;15.79;51.03;102099.41;5096304;28;1909;-50
2022/12/29 00:11:42;;;;;;;;;;;;;;;15.84;50.97;102091.34;5096250;28;1193;-49
2022/12/29 00:16:53;;;;;;;;;;;;;;;16.22;50.08;102087.31;5096419;28;1085;-51
2022/12/29 00:35:56;;;;;;;;;;;;;;;16.97;47.78;102082.91;5094647;28;1607;-49
2022/12/29 00:44:04;;;;;;;;;;;;;;;17.45;46.78;102080.78;5095315;28;1089;-51
2022/12/29 00:46:33;;;;;;;;;;;;;;;16.30;49.65;102078.72;5096027;28;1038;-50
2022/12/29 00:51:43;;;;;;;;;;;;;;;15.59;51.44;102088.75;5094148;28;1305;-47
2022/12/29 00:54:08;;;;;;;;;;;;;;;16.33;49.67;102083.72;5101044;28;1922;-46
2022/12/29 00:56:34;;;;;;;;;;;;;;;17.03;47.68;102079.16;5102373;28;1162;-49
2022/12/29 00:59:00;;;;;;;;;;;;;;;16.07;50.30;102074.91;5102390;28;1177;-49
2022/12/29 01:01:27;;;;;;;;;;;;;;;15.75;51.23;102077.09;5100511;28;1887;-46
2022/12/29 01:03:52;;;;;;;;;;;;;;;15.54;51.28;102081.22;5102599;28;1169;-46
2022/12/29 01:06:18;;;;;;;;;;;;;;;17.04;48.09;102064.34;5101980;28;1128;-49
2022/12/29 01:08:43;;;;;;;;;;;;;;;16.56;48.83;102068.28;5102133;28;1897;-49
2022/12/29 01:11:10;;;;;;;;;;;;;;;15.89;50.66;102051.16;5100377;28;1525;-48
2022/12/29 01:13:35;;;;;;;;;;;;;;;15.64;51.18;102054.09;5101106;28;1375;-49
2022/12/29 01:16:01;;;;;;;;;;;;;;;16.85;48.51;102044.44;5101118;28;1601;-49
2022/12/29 01:18:26;;;;;;;;;;;;;;;16.65;48.58;102044.88;5101951;28;892;-48
2022/12/29 01:20:58;;;;;;;;;;;;;;;15.92;50.69;102041.59;5100862;28;1203;-49
2022/12/29 01:23:23;;;;;;;;;;;;;;;15.65;51.36;102047.50;5099654;28;2251;-46
2022/12/29 01:25:49;;;;;;;;;;;;;;;16.40;49.46;102029.50;5095924;28;1015;-47
2022/12/29 01:28:14;;;;;;;;;;;;;;;17.37;46.77;102027.00;5102218;28;1972;-47
2022/12/29 01:30:39;;;;;;;;;;;;;;;16.26;49.58;102028.13;5100436;28;1019;-50
2022/12/29 01:33:05;;;;;;;;;;;;;;;15.84;50.56;102026.34;5101932;28;1192;-45
2022/12/29 01:35:30;;;;;;;;;;;;;;;15.57;51.48;102028.66;5101951;28;1077;-45
2022/12/29 01:37:57;;;;;;;;;;;;;;;16.95;48.15;102016.34;5100517;28;1317;-45
2022/12/29 01:40:22;;;;;;;;;;;;;;;16.40;49.33;102012.22;5100170;28;1097;-48
2022/12/29 01:42:48;;;;;;;;;;;;;;;15.84;50.82;102003.56;5101611;28;853;-50
2022/12/29 01:45:17;;;;;;;;;;;;;;;16.25;49.90;102001.75;5100564;28;1198;-47
2022/12/29 01:47:44;;;;;;;;;;;;;;;17.45;46.54;102001.84;5102000;28;1126;-45
2022/12/29 01:50:21;;;;;;;;;;;;;;;16.32;49.52;101987.88;5101750;28;1897;-49
2022/12/29 01:52:50;;;;;;;;;;;;;;;15.86;50.44;101977.56;5102244;28;1082;-48
2022/12/29 01:55:16;;;;;;;;;;;;;;;15.58;51.26;101975.50;5099514;28;2511;-50
2022/12/29 01:57:45;;;;;;;;;;;;;;;16.53;48.93;101975.41;5100685;28;1127;-48
2022/12/29 02:00:12;;;;;;;;;;;;;;;17.20;47.16;101977.50;5100542;28;1115;-51
2022/12/29 02:02:41;;;;;;;;;;;;;;;16.17;49.80;101975.53;5101989;28;1033;-50
2022/12/29 02:05:09;;;;;;;;;;;;;;;15.77;50.80;101980.88;5097491;28;1510;-49
2022/12/29 02:07:34;;;;;;;;;;;;;;;16.46;49.26;101975.53;5096920;28;979;-46
2022/12/29 02:10:00;;;;;;;;;;;;;;;17.33;46.77;101970.84;5098728;28;1902;-47
2022/12/29 02:12:25;;;;;;;;;;;;;;;16.26;49.37;101984.19;5097277;28;1155;-44
2022/12/29 02:14:52;;;;;;;;;;;;;;;15.84;50.38;101987.13;5098033;28;1042;-50
2022/12/29 02:17:32;;;;;;;;;;;;;;;15.63;51.07;101985.78;5098096;28;895;-48
2022/12/29 02:20:16;;;;;;;;;;;;;;;17.25;47.04;101974.84;5084725;28;1448;-50
2022/12/29 02:23:00;;;;;;;;;;;;;;;16.22;49.55;101972.84;5096954;28;1603;-50
2022/12/29 02:25:27;;;;;;;;;;;;;;;15.74;50.59;101971.22;5089568;28;2517;-48
2022/12/29 02:28:11;;;;;;;;;;;;;;;15.51;51.25;101972.88;5096710;28;1043;-48
2022/12/29 02:30:37;;;;;;;;;;;;;;;16.23;49.62;101974.53;5097739;28;1037;-46
2022/12/29 02:33:05;;;;;;;;;;;;;;;17.04;47.43;101965.44;5097194;28;1170;-47
2022/12/29 02:35:49;;;;;;;;;;;;;;;16.03;49.81;101953.00;5097897;28;1053;-51
2022/12/29 02:38:15;;;;;;;;;;;;;;;15.62;50.96;101951.19;5097041;28;1213;-50
2022/12/29 02:40:46;;;;;;;;;;;;;;;16.55;48.97;101943.88;5097769;28;1078;-51
2022/12/29 02:43:26;;;;;;;;;;;;;;;16.98;47.72;101941.66;5096175;28;1277;-51
2022/12/29 02:45:53;;;;;;;;;;;;;;;16.06;49.75;101947.00;5096572;28;1011;-48
2022/12/29 02:48:24;;;;;;;;;;;;;;;15.68;51.01;101948.34;5096429;28;1905;-49
2022/12/29 02:50:57;;;;;;;;;;;;;;;17.10;47.62;101950.69;5096647;28;1560;-47
2022/12/29 02:54:40;;;;;;;;;;;;;;;16.52;48.68;101943.53;5095743;28;2438;-48
2022/12/29 02:56:08;;;;;;;;;;;;;;;15.85;50.25;101943.00;5096359;28;1572;-49
2022/12/29 02:58:33;;;;;;;;;;;;;;;15.64;50.99;101941.66;5096367;28;1196;-50
2022/12/29 03:01:18;;;;;;;;;;;;;;;17.18;47.13;101935.72;5084341;28;1230;-47
2022/12/29 03:04:02;;;;;;;;;;;;;;;16.24;49.52;101923.22;5084794;28;1170;-49
2022/12/29 03:06:33;;;;;;;;;;;;;;;15.81;50.46;101933.56;5097713;28;1149;-47
2022/12/29 03:09:19;;;;;;;;;;;;;;;15.53;51.03;101937.03;5079402;28;1906;-46
2022/12/29 03:17:28;;;;;;;;;;;;;;;16.01;49.96;101935.91;5081836;28;1312;-51
2022/12/29 03:19:54;;;;;;;;;;;;;;;15.63;50.94;101942.72;5066883;28;1139;-46
2022/12/29 03:22:27;;;;;;;;;;;;;;;16.05;50.21;101947.25;5097324;28;1086;-49
2022/12/29 03:25:01;;;;;;;;;;;;;;;17.14;47.32;101950.19;5088166;28;2625;-49
2022/12/29 03:27:29;;;;;;;;;;;;;;;16.10;49.71;101952.00;5096003;28;1145;-51
2022/12/29 03:29:56;;;;;;;;;;;;;;;16.03;50.18;101954.88;5095603;28;1898;-46
2022/12/29 03:32:23;;;;;;;;;;;;;;;17.43;46.53;101949.03;5095622;28;936;-50
2022/12/29 03:34:49;;;;;;;;;;;;;;;16.39;48.86;101963.88;5095560;28;1145;-46
2022/12/29 03:37:15;;;;;;;;;;;;;;;15.89;50.12;101959.78;5095564;28;1168;-48
2022/12/29 03:39:41;;;;;;;;;;;;;;;15.64;50.73;101960.84;5095274;28;1156;-51
2022/12/29 03:42:08;;;;;;;;;;;;;;;16.06;50.16;101968.97;5095799;28;1270;-45
2022/12/29 03:44:39;;;;;;;;;;;;;;;17.42;46.50;101966.59;5084291;28;1075;-46
2022/12/29 03:47:05;;;;;;;;;;;;;;;16.30;49.32;101979.03;5095631;28;1211;-50
2022/12/29 03:49:30;;;;;;;;;;;;;;;15.85;50.27;101970.41;5095331;28;1890;-48
2022/12/29 03:51:56;;;;;;;;;;;;;;;15.60;50.93;101964.28;5096393;28;1153;-45
2022/12/29 03:54:22;;;;;;;;;;;;;;;17.07;47.59;101964.94;5094161;28;2651;-49
2022/12/29 03:56:48;;;;;;;;;;;;;;;16.46;48.91;101961.00;5094874;28;1159;-48
2022/12/29 03:59:18;;;;;;;;;;;;;;;15.85;50.29;101964.94;5095075;28;1066;-48
2022/12/29 04:01:44;;;;;;;;;;;;;;;15.64;50.87;101965.50;5095146;28;1418;-47
2022/12/29 04:04:09;;;;;;;;;;;;;;;17.17;47.01;101967.03;5095361;28;1264;-49
2022/12/29 04:06:35;;;;;;;;;;;;;;;16.25;49.20;101972.38;5096073;28;1030;-49
2022/12/29 04:09:04;;;;;;;;;;;;;;;15.78;50.29;101972.44;5096541;28;1989;-47
2022/12/29 04:11:33;;;;;;;;;;;;;;;15.56;50.95;101974.91;5095055;28;1338;-48
2022/12/29 04:14:00;;;;;;;;;;;;;;;17.04;47.50;101979.16;5095331;28;1206;-45
2022/12/29 04:16:27;;;;;;;;;;;;;;;16.31;49.13;101970.56;5094740;28;1360;-46
2022/12/29 04:18:52;;;;;;;;;;;;;;;15.76;50.38;101973.72;5095999;28;991;-51
2022/12/29 04:21:18;;;;;;;;;;;;;;;15.52;50.88;101979.19;5095736;28;1232;-51
2022/12/29 04:23:43;;;;;;;;;;;;;;;16.67;48.38;101982.28;5088992;28;2402;-47
2022/12/29 04:26:10;;;;;;;;;;;;;;;16.57;48.36;101973.84;5093379;28;1288;-52
2022/12/29 04:28:47;;;;;;;;;;;;;;;15.84;50.45;101984.38;5094192;28;1901;-50
2022/12/29 04:31:31;;;;;;;;;;;;;;;15.51;50.97;101981.09;5094479;28;1464;-48
2022/12/29 04:33:57;;;;;;;;;;;;;;;16.86;47.78;101984.84;5094911;28;1209;-50
2022/12/29 04:36:23;;;;;;;;;;;;;;;16.84;47.72;101973.25;5095523;28;1054;-51
2022/12/29 04:38:49;;;;;;;;;;;;;;;16.01;49.61;101988.03;5096239;28;1138;-49
2022/12/29 04:41:14;;;;;;;;;;;;;;;15.68;50.72;101978.50;5095761;28;1068;-48
2022/12/29 04:43:40;;;;;;;;;;;;;;;15.78;50.50;101983.41;5094662;28;1103;-48
2022/12/29 04:46:05;;;;;;;;;;;;;;;17.31;46.85;101988.69;5096097;28;1065;-50
2022/12/29 04:48:51;;;;;;;;;;;;;;;16.21;49.21;101984.09;5094897;28;1913;-46
2022/12/29 04:51:35;;;;;;;;;;;;;;;15.71;50.26;101993.63;5095065;28;1027;-45
2022/12/29 04:54:01;;;;;;;;;;;;;;;16.37;48.92;101985.25;5094230;28;2228;-48
2022/12/29 04:56:27;;;;;;;;;;;;;;;17.06;47.17;101998.16;5080492;28;1185;-53
2022/12/29 04:58:53;;;;;;;;;;;;;;;16.07;49.34;101998.06;5095648;28;1093;-53
2022/12/29 05:01:19;;;;;;;;;;;;;;;15.67;50.40;101985.06;5094300;28;1011;-52
2022/12/29 05:03:45;;;;;;;;;;;;;;;15.47;51.13;101979.88;5095773;28;1118;-46
2022/12/29 05:06:11;;;;;;;;;;;;;;;16.64;48.38;101985.53;5093854;28;2187;-57
2022/12/29 05:08:36;;;;;;;;;;;;;;;17.18;46.69;101978.84;5094250;28;1906;-56
2022/12/29 05:11:02;;;;;;;;;;;;;;;16.13;49.34;101989.94;5095411;28;1083;-54
2022/12/29 05:13:27;;;;;;;;;;;;;;;15.71;50.54;101983.50;5093835;28;1968;-53
2022/12/29 05:15:53;;;;;;;;;;;;;;;15.98;49.86;101987.72;5093955;28;1196;-53
2022/12/29 05:18:21;;;;;;;;;;;;;;;17.37;46.17;101987.69;5093925;28;1280;-56
2022/12/29 05:20:47;;;;;;;;;;;;;;;16.27;49.03;101982.28;5092535;28;1906;-57
2022/12/29 05:23:13;;;;;;;;;;;;;;;15.81;50.18;101976.59;5092329;28;2284;-57
2022/12/29 05:25:40;;;;;;;;;;;;;;;15.53;50.85;101978.97;5088009;28;1484;-60
2022/12/29 05:28:17;;;;;;;;;;;;;;;17.10;47.09;101974.59;5093517;28;1913;-56
2022/12/29 05:30:50;;;;;;;;;;;;;;;16.54;48.26;101979.84;5093548;28;1102;-60
2022/12/29 05:33:19;;;;;;;;;;;;;;;15.90;49.72;101983.41;5093847;28;1094;-59
2022/12/29 05:35:47;;;;;;;;;;;;;;;15.60;50.48;101975.25;5093869;28;1256;-65
2022/12/29 05:38:13;;;;;;;;;;;;;;;16.74;48.00;101980.22;5093655;28;1372;-58
2022/12/29 05:40:39;;;;;;;;;;;;;;;17.19;46.57;101981.34;5096325;28;1165;-59
2022/12/29 05:43:14;;;;;;;;;;;;;;;16.16;49.21;101979.31;5097830;28;1207;-59
2022/12/29 05:45:58;;;;;;;;;;;;;;;15.72;50.29;101982.44;5086454;28;1126;-53
2022/12/29 05:48:39;;;;;;;;;;;;;;;15.48;50.86;101978.00;5098860;28;1963;-57
2022/12/29 05:54:38;;;;;;;;;;;;;;;16.31;48.90;101986.22;5079463;28;2172;-57
2022/12/29 05:57:10;;;;;;;;;;;;;;;15.82;50.15;101981.03;5098658;28;912;-55
2022/12/29 05:59:37;;;;;;;;;;;;;;;16.22;49.04;101986.59;5097229;28;1329;-58
2022/12/29 06:02:04;;;;;;;;;;;;;;;17.40;46.13;101982.53;5097444;28;1242;-57
2022/12/29 06:04:30;;;;;;;;;;;;;;;16.31;48.56;101987.03;5098369;28;1420;-53
2022/12/29 06:06:56;;;;;;;;;;;;;;;15.82;49.82;101984.63;5097637;28;1153;-52
2022/12/29 06:09:36;;;;;;;;;;;;;;;15.57;50.42;101988.38;5097254;28;1979;-53
2022/12/29 06:12:03;;;;;;;;;;;;;;;16.94;47.42;101987.19;5096858;28;1418;-51
2022/12/29 06:14:28;;;;;;;;;;;;;;;16.46;48.20;101989.28;5097349;28;1385;-55
2022/12/29 06:16:54;;;;;;;;;;;;;;;15.85;49.81;101989.63;5097501;28;1264;-55
2022/12/29 06:19:21;;;;;;;;;;;;;;;15.55;50.57;101986.94;5096994;28;1152;-53
2022/12/29 06:21:46;;;;;;;;;;;;;;;15.76;50.12;101988.25;5098257;28;1030;-55
2022/12/29 06:24:11;;;;;;;;;;;;;;;17.29;46.38;101991.66;5089833;28;2421;-55
2022/12/29 06:26:37;;;;;;;;;;;;;;;16.94;47.44;101989.94;5096950;28;1322;-56
2022/12/29 06:29:03;;;;;;;;;;;;;;;17.85;45.61;101982.66;5096815;28;1965;-58
2022/12/29 06:31:28;;;;;;;;;;;;;;;18.79;43.42;101989.94;5097131;28;1217;-57
2022/12/29 06:33:54;;;;;;;;;;;;;;;17.00;47.42;101983.50;5097124;28;1276;-57
2022/12/29 06:36:19;;;;;;;;;;;;;;;17.19;47.59;101980.50;5088208;28;1128;-56
2022/12/29 06:38:45;;;;;;;;;;;;;;;17.53;46.29;101991.50;5079519;28;1204;-57
2022/12/29 06:41:11;;;;;;;;;;;;;;;16.77;48.45;101989.88;5085733;28;1343;-55
2022/12/29 06:43:56;;;;;;;;;;;;;;;18.75;43.87;101987.97;5093201;28;1155;-55
2022/12/29 06:46:36;;;;;;;;;;;;;;;17.09;47.12;101981.97;5082599;28;895;-59
2022/12/29 06:49:01;;;;;;;;;;;;;;;18.01;45.71;101992.84;5078487;28;1988;-56
2022/12/29 06:51:27;;;;;;;;;;;;;;;17.71;46.47;101980.28;5090973;28;1214;-56
2022/12/29 06:53:52;;;;;;;;;;;;;;;16.90;48.06;101972.28;5082399;28;919;-55
2022/12/29 06:56:18;;;;;;;;;;;;;;;18.89;43.92;101980.16;5080621;28;1237;-56
2022/12/29 06:58:43;;;;;;;;;;;;;;;17.39;47.05;101985.50;5091289;28;1201;-54
2022/12/29 07:01:09;;;;;;;;;;;;;;;18.62;44.69;101987.28;5091261;28;1043;-56
2022/12/29 07:03:35;;;;;;;;;;;;;;;18.39;45.04;101980.09;5085774;28;1043;-56
2022/12/29 07:06:00;;;;;;;;;;;;;;;17.25;47.06;101985.00;5097665;28;1118;-57
2022/12/29 07:08:25;;;;;;;;;;;;;;;18.55;44.88;101980.28;5096327;28;1970;-56
2022/12/29 07:10:51;;;;;;;;;;;;;;;17.53;46.88;101978.63;5087686;28;1228;-54
2022/12/29 07:13:16;;;;;;;;;;;;;;;17.92;46.35;101983.34;5087410;28;932;-55
2022/12/29 07:15:42;;;;;;;;;;;;;;;18.49;44.88;101986.84;5094789;28;1114;-56
2022/12/29 07:18:07;;;;;;;;;;;;;;;17.40;46.64;101990.78;5085439;28;1296;-57
2022/12/29 07:20:33;;;;;;;;;;;;;;;16.99;46.80;101995.56;5087145;28;1190;-57
2022/12/29 07:22:58;;;;;;;;;;;;;;;18.16;45.81;101994.97;5089412;28;1118;-55
2022/12/29 07:25:24;;;;;;;;;;;;;;;17.12;47.29;101982.59;5089213;28;1186;-55
2022/12/29 07:27:49;;;;;;;;;;;;;;;18.16;46.13;101988.63;5088504;28;1201;-54
2022/12/29 07:30:15;;;;;;;;;;;;;;;17.90;46.04;101983.56;5087086;28;1984;-53
2022/12/29 07:32:40;;;;;;;;;;;;;;;17.10;47.15;101994.66;5094250;28;1201;-55
2022/12/29 07:35:06;;;;;;;;;;;;;;;18.50;45.42;101991.28;5089325;28;1229;-54
2022/12/29 07:37:31;;;;;;;;;;;;;;;17.23;47.39;101984.44;5086382;28;1225;-53
2022/12/29 07:39:57;;;;;;;;;;;;;;;18.23;45.94;101989.25;5090496;28;1031;-52
2022/12/29 07:42:22;;;;;;;;;;;;;;;18.20;45.60;101992.53;5081685;28;1452;-50
2022/12/29 07:44:51;;;;;;;;;;;;;;;17.35;47.08;101990.69;5095217;28;1204;-52
2022/12/29 07:47:29;;;;;;;;;;;;;;;18.54;45.22;101997.94;5082017;28;1039;-50
2022/12/29 07:49:55;;;;;;;;;;;;;;;17.35;47.31;101989.84;5085651;28;1992;-50
2022/12/29 07:52:20;;;;;;;;;;;;;;;18.34;45.79;101996.59;5084063;28;1201;-52
2022/12/29 07:54:46;;;;;;;;;;;;;;;18.30;45.48;101992.69;5096987;28;1116;-53
2022/12/29 07:57:11;;;;;;;;;;;;;;;17.39;46.74;101993.75;5085898;28;1273;-52
2022/12/29 07:59:37;;;;;;;;;;;;;;;19.19;43.69;101989.81;5087035;28;1260;-53
2022/12/29 08:02:02;;;;;;;;;;;;;;;17.83;46.49;101995.84;5085886;28;1221;-51
2022/12/29 08:04:28;;;;;;;;;;;;;;;17.30;47.01;101993.34;5090153;28;1264;-53
2022/12/29 08:06:53;;;;;;;;;;;;;;;18.23;46.06;101992.00;5092280;28;1222;-52
2022/12/29 08:09:19;;;;;;;;;;;;;;;17.58;47.20;101994.34;5096229;28;1905;-53
2022/12/29 08:11:44;;;;;;;;;;;;;;;17.03;47.31;101988.47;5086287;28;1181;-55
2022/12/29 08:14:09;;;;;;;;;;;;;;;18.42;45.16;101996.09;5078103;28;908;-57
2022/12/29 08:16:36;;;;;;;;;;;;;;;17.38;47.10;101995.69;5079574;28;1054;-53
2022/12/29 08:19:01;;;;;;;;;;;;;;;17.04;46.79;101995.66;5083718;28;978;-55
2022/12/29 08:21:27;;;;;;;;;;;;;;;18.49;45.36;101995.94;5087242;28;1104;-54
2022/12/29 08:23:52;;;;;;;;;;;;;;;17.26;47.37;101998.53;5089698;28;1114;-55
2022/12/29 08:26:18;;;;;;;;;;;;;;;18.60;45.12;102002.41;5092775;28;1193;-53
2022/12/29 08:28:43;;;;;;;;;;;;;;;18.20;45.70;101995.28;5087968;28;1975;-53
2022/12/29 08:31:09;;;;;;;;;;;;;;;17.34;47.11;101989.00;5085368;28;1248;-53
2022/12/29 08:33:34;;;;;;;;;;;;;;;17.49;47.23;101990.34;5088118;28;1301;-52
2022/12/29 08:36:00;;;;;;;;;;;;;;;17.72;46.90;101990.16;5083162;28;1046;-54
2022/12/29 08:38:26;;;;;;;;;;;;;;;17.15;47.06;101990.31;5089635;28;1201;-51
2022/12/29 08:40:52;;;;;;;;;;;;;;;18.79;44.93;101987.19;5076367;28;1273;-55
2022/12/29 08:43:17;;;;;;;;;;;;;;;17.49;47.18;101980.19;5096816;28;1046;-52
2022/12/29 08:45:43;;;;;;;;;;;;;;;17.31;47.70;101981.28;5096059;28;1034;-53
2022/12/29 08:48:08;;;;;;;;;;;;;;;17.93;46.42;101974.81;5077906;28;1154;-54
2022/12/29 08:50:33;;;;;;;;;;;;;;;17.20;47.06;101973.94;5083580;28;1909;-52
2022/12/29 08:52:59;;;;;;;;;;;;;;;17.86;47.02;101978.81;5076394;28;1157;-59
2022/12/29 08:55:24;;;;;;;;;;;;;;;17.49;47.32;101969.19;5090035;28;1256;-58
2022/12/29 08:57:51;;;;;;;;;;;;;;;18.63;45.22;101971.56;5088918;28;1134;-52
2022/12/29 09:00:20;;;;;;;;;;;;;;;19.35;43.13;101965.94;5088504;28;1221;-53
2022/12/29 09:02:45;;;;;;;;;;;;;;;17.87;45.95;101964.00;5075224;28;1333;-49
2022/12/29 09:05:11;;;;;;;;;;;;;;;17.28;46.45;101955.09;5091349;28;1087;-52
2022/12/29 09:07:36;;;;;;;;;;;;;;;17.51;46.59;101956.00;5091493;28;1335;-52
2022/12/29 09:10:02;;;;;;;;;;;;;;;17.83;46.69;101957.31;5092645;28;1986;-51
2022/12/29 09:12:27;;;;;;;;;;;;;;;17.19;47.02;101958.53;5085330;28;1185;-51
2022/12/29 09:14:52;;;;;;;;;;;;;;;17.93;46.64;101954.72;5089703;28;1345;-49
2022/12/29 09:20:02;;;;;;;;;;;;;;;17.03;47.03;101955.50;5088054;28;1209;-61
2022/12/29 09:22:28;;;;;;;;;;;;;;;18.14;46.14;101955.84;5085013;28;923;-53
2022/12/29 09:24:53;;;;;;;;;;;;;;;17.52;47.50;101951.38;5094574;28;1130;-52
2022/12/29 09:27:19;;;;;;;;;;;;;;;19.38;43.47;101948.88;5089339;28;1217;-52
2022/12/29 09:29:44;;;;;;;;;;;;;;;18.27;45.57;101954.63;5084890;28;1976;-52
2022/12/29 09:32:10;;;;;;;;;;;;;;;17.48;46.78;101950.19;5093901;28;1277;-51
2022/12/29 09:34:35;;;;;;;;;;;;;;;18.60;45.16;101955.56;5099504;28;960;-52
2022/12/29 09:37:00;;;;;;;;;;;;;;;17.51;46.92;101950.50;5094892;28;1026;-54
2022/12/29 09:39:26;;;;;;;;;;;;;;;18.62;45.38;101942.34;5090137;28;1196;-53
2022/12/29 09:42:00;;;;;;;;;;;;;;;18.25;45.62;101943.03;5080302;28;1161;-55
2022/12/29 09:44:31;;;;;;;;;;;;;;;17.39;46.65;101941.50;5091394;28;1120;-55
2022/12/29 09:46:57;;;;;;;;;;;;;;;18.26;45.75;101940.03;5100161;28;1305;-55
2022/12/29 09:49:30;;;;;;;;;;;;;;;17.38;47.16;101935.19;5091784;28;1917;-56
2022/12/29 09:52:08;;;;;;;;;;;;;;;17.73;46.99;101928.56;5090769;28;1205;-58
2022/12/29 09:54:49;;;;;;;;;;;;;;;17.77;46.73;101921.47;5091700;28;1293;-56
2022/12/29 09:57:24;;;;;;;;;;;;;;;17.32;47.55;101925.22;5111448;28;1158;-55
2022/12/29 09:59:50;;;;;;;;;;;;;;;18.40;45.43;101912.94;5083864;28;1107;-55
2022/12/29 10:02:37;;;;;;;;;;;;;;;17.34;47.05;101912.03;5087497;28;1197;-56
2022/12/29 10:05:02;;;;;;;;;;;;;;;17.04;46.81;101918.72;5079334;28;1098;-55
2022/12/29 10:07:27;;;;;;;;;;;;;;;18.13;46.08;101904.63;5091073;28;1158;-59
2022/12/29 10:10:11;;;;;;;;;;;;;;;17.49;47.63;101902.34;5096203;28;1910;-59
2022/12/29 10:12:55;;;;;;;;;;;;;;;19.53;43.23;101895.72;5078975;28;1051;-59
2022/12/29 10:15:39;;;;;;;;;;;;;;;17.89;46.42;101904.00;5085477;28;1131;-58
2022/12/29 10:18:18;;;;;;;;;;;;;;;17.38;46.62;101896.72;5099030;28;1125;-59
2022/12/29 10:20:43;;;;;;;;;;;;;;;18.47;45.26;101886.03;5083581;28;1186;-55
2022/12/29 10:23:14;;;;;;;;;;;;;;;17.41;47.05;101887.94;5098943;28;1031;-57
2022/12/29 10:25:40;;;;;;;;;;;;;;;19.05;44.42;101879.13;5084546;28;1134;-58
2022/12/29 10:28:09;;;;;;;;;;;;;;;18.54;45.13;101876.72;5098916;28;1113;-55
2022/12/29 10:30:35;;;;;;;;;;;;;;;17.59;46.70;101878.59;5098706;28;1977;-58
2022/12/29 10:33:07;;;;;;;;;;;;;;;17.38;46.26;101871.97;5089342;28;1210;-57
2022/12/29 10:35:35;;;;;;;;;;;;;;;18.00;46.31;101870.06;5109986;28;1105;-57
2022/12/29 10:38:09;;;;;;;;;;;;;;;17.40;47.13;101864.31;5097501;28;1113;-57
2022/12/29 10:40:38;;;;;;;;;;;;;;;17.26;47.25;101863.81;5094462;28;1366;-57
2022/12/29 10:43:07;;;;;;;;;;;;;;;18.18;46.04;101862.56;5104853;28;1143;-57
2022/12/29 10:45:33;;;;;;;;;;;;;;;17.28;47.23;101858.06;5095780;28;1042;-57
2022/12/29 10:48:00;;;;;;;;;;;;;;;18.71;45.32;101862.84;5088988;28;1165;-57
2022/12/29 10:50:26;;;;;;;;;;;;;;;17.82;46.74;101856.59;5093862;28;1980;-51
2022/12/29 10:52:52;;;;;;;;;;;;;;;18.06;46.75;101851.69;5097474;28;1059;-59
2022/12/29 10:55:19;;;;;;;;;;;;;;;18.89;44.40;101862.47;5098447;28;1101;-58
2022/12/29 10:57:44;;;;;;;;;;;;;;;17.71;46.45;101850.97;5096895;28;1443;-58
2022/12/29 11:00:12;;;;;;;;;;;;;;;18.74;45.17;101846.59;5082874;28;1177;-57
2022/12/29 11:02:44;;;;;;;;;;;;;;;18.02;46.27;101848.63;5086463;28;1174;-59
2022/12/29 11:05:21;;;;;;;;;;;;;;;17.48;46.63;101845.72;5098399;28;1138;-58
2022/12/29 11:07:47;;;;;;;;;;;;;;;17.21;46.25;101846.44;5098394;28;1029;-57
2022/12/29 11:10:20;;;;;;;;;;;;;;;17.89;46.41;101843.47;5095787;28;1909;-57
2022/12/29 11:12:59;;;;;;;;;;;;;;;17.25;47.04;101844.81;5085652;28;1130;-56
2022/12/29 11:15:25;;;;;;;;;;;;;;;17.00;46.61;101843.34;5078444;28;1059;-56
2022/12/29 11:17:51;;;;;;;;;;;;;;;18.22;45.78;101841.69;5090210;28;1215;-60
2022/12/29 11:20:37;;;;;;;;;;;;;;;17.28;47.28;101841.56;5097939;28;1026;-57
2022/12/29 11:23:05;;;;;;;;;;;;;;;16.93;46.94;101838.03;5084490;28;1058;-57
2022/12/29 11:25:30;;;;;;;;;;;;;;;17.58;47.17;101832.09;5097660;28;1121;-55
2022/12/29 11:27:57;;;;;;;;;;;;;;;16.94;47.37;101822.34;5083861;28;1060;-59
2022/12/29 11:30:26;;;;;;;;;;;;;;;18.81;44.85;101825.16;5084337;28;1976;-58
2022/12/29 11:32:52;;;;;;;;;;;;;;;17.59;47.02;101826.31;5077447;28;1075;-60
2022/12/29 11:35:29;;;;;;;;;;;;;;;17.23;47.04;101827.75;5093505;28;1316;-57
2022/12/29 11:37:55;;;;;;;;;;;;;;;17.51;47.15;101825.94;5097993;28;1125;-59
2022/12/29 11:40:21;;;;;;;;;;;;;;;17.89;46.85;101829.72;5083798;28;1209;-59
2022/12/29 11:42:47;;;;;;;;;;;;;;;17.17;47.45;101828.78;5093841;28;1158;-57
2022/12/29 11:45:17;;;;;;;;;;;;;;;18.69;45.31;101832.81;5082666;28;1209;-56
2022/12/29 11:47:43;;;;;;;;;;;;;;;17.43;47.24;101830.81;5083415;28;1031;-58
2022/12/29 11:50:15;;;;;;;;;;;;;;;17.72;47.37;101827.03;5097166;28;1909;-58
2022/12/29 11:52:40;;;;;;;;;;;;;;;18.21;46.11;101815.25;5087734;28;1218;-57
2022/12/29 11:55:07;;;;;;;;;;;;;;;17.40;47.17;101816.72;5107566;28;1158;-50
2022/12/29 11:57:32;;;;;;;;;;;;;;;17.17;46.71;101802.09;5095877;28;1058;-53
2022/12/29 11:59:58;;;;;;;;;;;;;;;18.40;45.78;101808.28;5096052;28;1027;-51
2022/12/29 12:02:29;;;;;;;;;;;;;;;17.37;47.15;101806.22;5096036;28;976;-54
2022/12/29 12:05:15;;;;;;;;;;;;;;;17.14;47.26;101804.50;5081710;28;1208;-51
2022/12/29 12:07:41;;;;;;;;;;;;;;;17.79;46.74;101794.66;5076490;28;1238;-52
2022/12/29 12:10:10;;;;;;;;;;;;;;;17.12;47.42;101795.69;5093722;28;1942;-53
2022/12/29 12:12:51;;;;;;;;;;;;;;;18.82;44.96;101784.69;5083829;28;1384;-53
2022/12/29 12:15:22;;;;;;;;;;;;;;;17.52;47.27;101795.44;5094559;28;1561;-54
2022/12/29 12:17:53;;;;;;;;;;;;;;;17.09;47.30;101792.38;5095361;28;1284;-57
2022/12/29 12:20:27;;;;;;;;;;;;;;;18.21;45.98;101788.53;5097230;28;1128;-54
2022/12/29 12:22:55;;;;;;;;;;;;;;;17.30;47.17;101789.91;5083677;28;1193;-54
2022/12/29 12:25:21;;;;;;;;;;;;;;;17.16;47.75;101783.13;5096463;28;1041;-57
2022/12/29 12:27:48;;;;;;;;;;;;;;;17.71;47.17;101787.72;5090652;28;1055;-58
2022/12/29 12:30:15;;;;;;;;;;;;;;;16.96;47.72;101781.75;5092359;28;1980;-55
2022/12/29 12:33:02;;;;;;;;;;;;;;;18.93;44.62;101774.59;5087021;28;1190;-60
2022/12/29 12:35:46;;;;;;;;;;;;;;;17.42;47.50;101785.13;5079021;28;1218;-57
2022/12/29 12:38:27;;;;;;;;;;;;;;;17.09;47.23;101775.88;5088287;28;1040;-59
2022/12/29 12:40:52;;;;;;;;;;;;;;;17.62;46.93;101776.31;5083169;28;1051;-55
2022/12/29 12:43:36;;;;;;;;;;;;;;;17.55;47.29;101783.09;5096529;28;1423;-58
2022/12/29 12:46:12;;;;;;;;;;;;;;;17.78;47.20;101785.59;5085687;28;1098;-56
2022/12/29 12:48:56;;;;;;;;;;;;;;;18.69;44.99;101776.84;5109568;28;2339;-57
2022/12/29 12:51:40;;;;;;;;;;;;;;;17.47;47.14;101778.03;5082769;28;1224;-55
2022/12/29 12:54:12;;;;;;;;;;;;;;;17.12;47.54;101779.22;5087043;28;1111;-57
2022/12/29 12:56:41;;;;;;;;;;;;;;;17.57;47.31;101778.16;5084563;28;1046;-58
2022/12/29 12:59:13;;;;;;;;;;;;;;;17.09;47.33;101773.13;5091645;28;1010;-58
2022/12/29 13:01:53;;;;;;;;;;;;;;;18.55;45.46;101774.56;5085746;28;1067;-61
2022/12/29 13:04:18;;;;;;;;;;;;;;;17.26;47.59;101786.00;5081840;28;1106;-58
2022/12/29 13:06:52;;;;;;;;;;;;;;;17.05;47.66;101777.47;5086565;28;1249;-59
2022/12/29 13:09:47;;;;;;;;;;;;;;;17.82;47.11;101774.88;5089825;28;1981;-58
2022/12/29 13:12:17;;;;;;;;;;;;;;;17.13;47.61;101778.13;5072497;28;1276;-59
2022/12/29 13:15:03;;;;;;;;;;;;;;;18.44;45.97;101772.81;5090298;28;1340;-58
2022/12/29 13:17:40;;;;;;;;;;;;;;;17.31;47.30;101780.59;5090524;28;1603;-58
2022/12/29 13:20:10;;;;;;;;;;;;;;;18.12;46.84;101774.44;5095586;28;1078;-59
2022/12/29 13:22:59;;;;;;;;;;;;;;;17.53;47.23;101782.50;5079042;28;1139;-57
2022/12/29 13:25:31;;;;;;;;;;;;;;;17.05;47.59;101782.97;5065724;28;1584;-57
2022/12/29 13:28:02;;;;;;;;;;;;;;;17.79;47.20;101779.00;5089299;28;1138;-60
2022/12/29 13:30:51;;;;;;;;;;;;;;;17.10;47.72;101784.97;5088059;28;1987;-60
2022/12/29 13:33:20;;;;;;;;;;;;;;;18.68;45.43;101776.03;5079911;28;1937;-55
2022/12/29 13:35:49;;;;;;;;;;;;;;;17.34;47.55;101784.75;5081655;28;1198;-54
2022/12/29 13:38:15;;;;;;;;;;;;;;;17.02;47.56;101794.47;5086906;28;1205;-58